Time;durP1;ratioP1;P1;durP2;ratioP2;P2;SDS_P1;SDS_P2;PMS_P1;PMS_P2;Temp;Humidity;BMP_temperature;BMP_pressure;BME280_temperature;BME280_humidity;BME280_pressure;Samples;Min_cycle;Max_cycle;Signal;HPM_P1;HPM_P2
2023/04/13 00:01:44;;;;;;;8.48;3.38;;;6.20;99.90;;;;;;7375632;19;20358;-64
2023/04/13 00:04:32;;;;;;;7.68;3.53;;;6.20;99.90;;;;;;7371648;19;20043;-64
2023/04/13 00:07:02;;;;;;;6.05;3.80;;;6.30;99.90;;;;;;7372127;19;20592;-63
2023/04/13 00:09:31;;;;;;;7.00;3.13;;;6.40;99.90;;;;;;7374020;19;20014;-63
2023/04/13 00:11:58;;;;;;;5.07;3.30;;;6.50;99.90;;;;;;7368305;19;20022;-61
2023/04/13 00:14:26;;;;;;;8.32;3.60;;;6.60;99.90;;;;;;7367779;19;20849;-63
2023/04/13 00:16:53;;;;;;;5.95;3.25;;;6.70;99.90;;;;;;7374724;19;20911;-63
2023/04/13 00:19:19;;;;;;;5.35;2.90;;;6.70;99.90;;;;;;7369388;19;20019;-62
2023/04/13 00:21:46;;;;;;;6.40;3.30;;;6.80;99.90;;;;;;7371565;19;20010;-63
2023/04/13 00:24:13;;;;;;;7.80;3.33;;;6.80;99.90;;;;;;7372501;19;20014;-63
2023/04/13 00:26:43;;;;;;;7.60;3.13;;;6.80;99.90;;;;;;7370616;19;20026;-63
2023/04/13 00:29:10;;;;;;;4.85;3.00;;;6.90;99.90;;;;;;7373203;19;20014;-63
2023/04/13 00:31:36;;;;;;;5.82;3.00;;;6.90;99.90;;;;;;7370952;19;20018;-64
2023/04/13 00:34:03;;;;;;;4.95;3.08;;;6.90;99.90;;;;;;7372112;19;20849;-64
2023/04/13 00:36:29;;;;;;;6.72;3.38;;;7.00;99.90;;;;;;7375470;19;20022;-64
2023/04/13 00:38:58;;;;;;;7.20;3.20;;;6.90;99.90;;;;;;7374708;19;20044;-63
2023/04/13 00:41:25;;;;;;;6.00;3.78;;;6.90;99.90;;;;;;7375163;19;20541;-64
2023/04/13 00:43:52;;;;;;;5.75;3.17;;;6.70;99.90;;;;;;7371229;19;20073;-63
2023/04/13 00:46:19;;;;;;;5.75;2.60;;;6.60;99.90;;;;;;7372521;19;20389;-64
2023/04/13 00:48:47;;;;;;;5.38;2.88;;;6.50;99.90;;;;;;7373174;19;20022;-66
2023/04/13 00:51:17;;;;;;;5.32;2.53;;;6.40;99.90;;;;;;7372891;19;20042;-64
2023/04/13 00:53:44;;;;;;;5.60;3.00;;;6.30;99.90;;;;;;7373748;19;20739;-66
2023/04/13 00:56:11;;;;;;;3.83;2.35;;;6.20;99.90;;;;;;7371707;19;20018;-67
2023/04/13 00:58:37;;;;;;;5.38;2.95;;;6.20;99.90;;;;;;7368705;19;20028;-66
2023/04/13 01:01:04;;;;;;;5.88;3.08;;;6.20;99.90;;;;;;7370614;19;20900;-66
2023/04/13 01:03:35;;;;;;;5.35;3.25;;;6.20;99.90;;;;;;7371459;19;20500;-66
2023/04/13 01:06:26;;;;;;;6.50;3.65;;;6.20;99.90;;;;;;7367543;19;20022;-66
2023/04/13 01:09:14;;;;;;;4.70;2.80;;;6.10;99.90;;;;;;7370126;19;20017;-66
2023/04/13 01:11:52;;;;;;;6.65;3.10;;;6.10;99.90;;;;;;7373504;19;20014;-65
2023/04/13 01:14:30;;;;;;;6.30;3.22;;;6.10;99.90;;;;;;7372672;19;20657;-66
2023/04/13 01:17:02;;;;;;;5.95;2.53;;;6.00;99.90;;;;;;7371550;19;20068;-65
2023/04/13 01:19:50;;;;;;;;;;;6.00;99.90;;;;;;7373631;19;20868;-65
2023/04/13 01:22:24;;;;;;;5.15;2.85;;;6.00;99.90;;;;;;7369112;19;19957;-66
2023/04/13 01:25:18;;;;;;;5.97;3.00;;;5.90;99.90;;;;;;7370348;19;20022;-66
2023/04/13 01:27:50;;;;;;;5.13;2.65;;;5.90;99.90;;;;;;7371835;19;20061;-65
2023/04/13 01:30:23;;;;;;;5.65;2.92;;;5.90;99.90;;;;;;7369166;19;20837;-63
2023/04/13 01:32:54;;;;;;;5.72;2.80;;;5.90;99.90;;;;;;7369735;19;20022;-63
2023/04/13 01:35:22;;;;;;;5.18;2.40;;;5.90;99.90;;;;;;7368092;19;20511;-63
2023/04/13 01:37:50;;;;;;;6.03;2.53;;;5.90;99.90;;;;;;7366895;19;20019;-64
2023/04/13 01:40:20;;;;;;;4.38;2.70;;;5.90;99.90;;;;;;7365174;19;20090;-66
2023/04/13 01:42:51;;;;;;;7.22;2.60;;;6.00;99.90;;;;;;7369665;19;20612;-64
2023/04/13 01:45:19;;;;;;;5.57;2.40;;;6.00;99.90;;;;;;7368730;19;20090;-64
2023/04/13 01:48:20;;;;;;;3.78;1.98;;;6.00;99.90;;;;;;7370897;19;20018;-63
2023/04/13 01:51:13;;;;;;;7.78;2.50;;;6.00;99.90;;;;;;7371417;19;20018;-64
2023/04/13 01:53:52;;;;;;;4.47;2.05;;;6.00;99.90;;;;;;7369451;19;20027;-63
2023/04/13 01:56:21;;;;;;;3.78;1.83;;;6.00;99.90;;;;;;7368489;19;20047;-66
2023/04/13 01:58:55;;;;;;;6.78;2.65;;;6.00;99.90;;;;;;7369377;19;20018;-64
2023/04/13 02:01:21;;;;;;;4.03;2.10;;;6.00;99.90;;;;;;7367799;19;20482;-64
2023/04/13 02:03:48;;;;;;;3.80;1.83;;;6.00;99.90;;;;;;7363728;19;20019;-64
2023/04/13 02:06:14;;;;;;;5.88;2.28;;;6.00;99.90;;;;;;7368891;19;20050;-66
2023/04/13 02:08:44;;;;;;;5.75;2.10;;;6.00;99.90;;;;;;7368962;19;20024;-64
2023/04/13 02:11:14;;;;;;;6.53;2.35;;;6.00;99.90;;;;;;7365217;19;20050;-66
2023/04/13 02:13:43;;;;;;;5.57;2.38;;;5.90;99.90;;;;;;7368572;19;20093;-64
2023/04/13 02:16:14;;;;;;;4.35;1.90;;;5.90;99.90;;;;;;7369396;19;20030;-64
2023/04/13 02:18:40;;;;;;;4.00;2.13;;;5.90;99.90;;;;;;7363347;19;20026;-66
2023/04/13 02:21:10;;;;;;;5.18;2.15;;;5.90;99.90;;;;;;7360952;19;20022;-65
2023/04/13 02:23:39;;;;;;;3.78;2.00;;;5.90;99.90;;;;;;7369602;19;20019;-63
2023/04/13 02:26:08;;;;;;;9.05;2.70;;;5.90;99.90;;;;;;7365584;19;20021;-66
2023/04/13 02:28:37;;;;;;;6.05;2.22;;;5.90;99.90;;;;;;7368071;19;20022;-64
2023/04/13 02:31:04;;;;;;;4.55;2.28;;;5.90;99.90;;;;;;7366523;19;20492;-66
2023/04/13 02:33:32;;;;;;;7.57;2.50;;;5.90;99.90;;;;;;7370966;19;20064;-64
2023/04/13 02:36:03;;;;;;;6.40;2.72;;;5.90;99.90;;;;;;7373081;19;20592;-64
2023/04/13 02:38:36;;;;;;;5.10;2.33;;;5.90;99.90;;;;;;7377367;19;20030;-65
2023/04/13 02:41:09;;;;;;;6.90;2.50;;;5.90;99.90;;;;;;7376529;19;20039;-65
2023/04/13 02:43:35;;;;;;;4.68;2.58;;;5.90;99.90;;;;;;7378723;19;20042;-65
2023/04/13 02:46:03;;;;;;;3.65;2.10;;;5.80;99.90;;;;;;7375665;19;20086;-65
2023/04/13 02:48:34;;;;;;;6.95;2.85;;;5.90;99.90;;;;;;7365543;19;20024;-65
2023/04/13 02:51:03;;;;;;;4.13;2.50;;;5.80;99.90;;;;;;7366881;19;20366;-65
2023/04/13 02:53:32;;;;;;;6.65;2.55;;;5.90;99.90;;;;;;7361972;19;20100;-65
2023/04/13 02:56:05;;;;;;;8.43;3.75;;;5.90;99.90;;;;;;7371944;19;20109;-65
2023/04/13 02:58:31;;;;;;;6.38;2.55;;;5.90;99.90;;;;;;7373750;19;20011;-63
2023/04/13 03:01:01;;;;;;;6.97;3.15;;;5.90;99.90;;;;;;7372070;19;20025;-63
2023/04/13 03:03:29;;;;;;;6.03;2.67;;;5.90;99.90;;;;;;7370338;19;20025;-65
2023/04/13 03:05:55;;;;;;;7.00;2.30;;;5.90;99.90;;;;;;7374608;19;20025;-64
2023/04/13 03:08:32;;;;;;;5.28;2.70;;;5.90;99.90;;;;;;7370362;19;20030;-64
2023/04/13 03:11:16;;;;;;;7.53;2.92;;;6.00;99.90;;;;;;7370058;19;20018;-65
2023/04/13 03:13:52;;;;;;;7.32;2.72;;;6.00;99.90;;;;;;7371132;19;20014;-66
2023/04/13 03:16:19;;;;;;;4.93;2.80;;;5.90;99.90;;;;;;7371744;19;20026;-65
2023/04/13 03:18:46;;;;;;;4.03;2.25;;;5.90;99.90;;;;;;7375726;19;20478;-65
2023/04/13 03:21:13;;;;;;;4.80;2.95;;;5.90;99.90;;;;;;7376078;19;20591;-65
2023/04/13 03:23:57;;;;;;;5.72;3.05;;;6.00;99.90;;;;;;7375711;19;20025;-65
2023/04/13 03:26:24;;;;;;;6.38;3.17;;;6.00;99.90;;;;;;7374543;19;20014;-64
2023/04/13 03:28:52;;;;;;;6.60;2.92;;;6.00;99.90;;;;;;7375981;19;20026;-65
2023/04/13 03:31:20;;;;;;;7.97;3.25;;;6.00;99.90;;;;;;7373680;19;20783;-65
2023/04/13 03:33:49;;;;;;;6.97;3.50;;;5.90;99.90;;;;;;7375907;19;20019;-65
2023/04/13 03:36:16;;;;;;;5.40;3.22;;;5.90;99.90;;;;;;7369104;19;20026;-65
2023/04/13 03:38:42;;;;;;;6.95;3.67;;;5.90;99.90;;;;;;7371678;19;20752;-65
2023/04/13 03:41:09;;;;;;;7.18;3.65;;;6.00;99.90;;;;;;7373809;19;20619;-63
2023/04/13 03:43:36;;;;;;;6.13;3.53;;;6.00;99.90;;;;;;7376173;19;20354;-65
2023/04/13 03:46:11;;;;;;;6.45;3.60;;;6.00;99.90;;;;;;7372567;19;20360;-65
2023/04/13 03:48:41;;;;;;;5.93;3.33;;;6.00;99.90;;;;;;7370974;19;20482;-65
2023/04/13 03:51:10;;;;;;;5.10;2.80;;;6.10;99.90;;;;;;7373249;19;20466;-64
2023/04/13 03:53:50;;;;;;;6.00;3.80;;;6.10;99.90;;;;;;7373838;19;20042;-65
2023/04/13 03:56:22;;;;;;;6.17;3.30;;;6.10;99.90;;;;;;7374048;19;20039;-65
2023/04/13 03:58:48;;;;;;;6.43;3.78;;;6.10;99.90;;;;;;7371413;19;20279;-64
2023/04/13 04:01:20;;;;;;;6.10;3.55;;;6.10;99.90;;;;;;7374984;19;20054;-64
2023/04/13 04:03:49;;;;;;;6.72;4.13;;;6.10;99.90;;;;;;7374561;19;20050;-65
2023/04/13 04:06:17;;;;;;;4.97;3.58;;;6.10;99.90;;;;;;7375246;19;20018;-65
2023/04/13 04:08:50;;;;;;;4.97;3.42;;;6.10;99.90;;;;;;7373575;19;20022;-63
2023/04/13 04:11:43;;;;;;;;;;;6.10;99.90;;;;;;7374743;19;20010;-63
2023/04/13 04:14:10;;;;;;;6.75;4.70;;;6.10;99.90;;;;;;7373699;19;19982;-65
2023/04/13 04:16:38;;;;;;;6.28;3.97;;;6.20;99.90;;;;;;7374188;19;20504;-64
2023/04/13 04:19:11;;;;;;;7.97;4.43;;;6.10;99.90;;;;;;7371529;19;20018;-64
2023/04/13 04:21:37;;;;;;;6.72;4.93;;;6.20;99.90;;;;;;7373026;19;20050;-65
2023/04/13 04:24:11;;;;;;;8.43;5.23;;;6.20;99.90;;;;;;7373369;19;20014;-65
2023/04/13 04:26:39;;;;;;;5.93;4.90;;;6.10;99.90;;;;;;7374121;19;20014;-64
2023/04/13 04:29:07;;;;;;;8.57;5.38;;;6.20;99.90;;;;;;7369971;19;20584;-64
2023/04/13 04:31:42;;;;;;;7.75;5.05;;;6.20;99.90;;;;;;7372512;19;20026;-65
2023/04/13 04:34:10;;;;;;;11.27;5.95;;;6.20;99.90;;;;;;7371487;19;20422;-65
2023/04/13 04:36:40;;;;;;;6.80;5.32;;;6.20;99.90;;;;;;7369055;19;20018;-63
2023/04/13 04:39:08;;;;;;;7.88;5.53;;;6.20;99.90;;;;;;7373136;19;20096;-64
2023/04/13 04:41:43;;;;;;;8.50;5.68;;;6.20;99.90;;;;;;7371076;19;20029;-64
2023/04/13 04:44:15;;;;;;;8.43;6.00;;;6.10;99.90;;;;;;7368981;19;20538;-65
2023/04/13 04:46:42;;;;;;;11.75;5.68;;;6.20;99.90;;;;;;7369225;19;20032;-65
2023/04/13 04:49:13;;;;;;;8.98;5.03;;;6.10;99.90;;;;;;7372899;19;20018;-64
2023/04/13 04:51:39;;;;;;;7.35;5.35;;;6.10;99.90;;;;;;7374831;19;20010;-64
2023/04/13 04:54:06;;;;;;;7.35;4.97;;;6.00;99.90;;;;;;7371496;19;20014;-66
2023/04/13 04:56:33;;;;;;;7.63;5.07;;;5.90;99.90;;;;;;7374172;19;20384;-64
2023/04/13 04:59:00;;;;;;;7.53;5.18;;;5.90;99.90;;;;;;7367047;19;20656;-64
2023/04/13 05:01:37;;;;;;;7.63;5.30;;;5.90;99.90;;;;;;7370378;19;20893;-64
2023/04/13 05:04:09;;;;;;;7.90;5.28;;;5.80;99.90;;;;;;7371261;19;20017;-64
2023/04/13 05:06:40;;;;;;;8.60;5.90;;;5.80;99.90;;;;;;7374165;19;20031;-64
2023/04/13 05:09:08;;;;;;;6.30;5.45;;;5.70;99.90;;;;;;7364117;19;20018;-64
2023/04/13 05:11:36;;;;;;;9.30;5.97;;;5.70;99.90;;;;;;7369427;19;20033;-64
2023/04/13 05:14:05;;;;;;;9.13;6.10;;;5.70;99.90;;;;;;7368393;19;20034;-64
2023/04/13 05:16:33;;;;;;;8.38;5.95;;;5.70;99.90;;;;;;7367817;19;20034;-65
2023/04/13 05:19:07;;;;;;;10.82;6.30;;;5.70;99.90;;;;;;7357373;19;20482;-65
2023/04/13 05:21:46;;;;;;;10.52;5.50;;;5.60;99.90;;;;;;7369976;19;20034;-65
2023/04/13 05:24:12;;;;;;;8.57;6.10;;;5.70;99.90;;;;;;7364218;19;20030;-65
2023/04/13 05:26:42;;;;;;;11.77;6.68;;;5.70;99.90;;;;;;7366339;19;20016;-63
2023/04/13 05:29:09;;;;;;;9.63;6.57;;;5.70;99.90;;;;;;7366097;19;20742;-64
2023/04/13 05:31:39;;;;;;;10.73;5.93;;;5.70;99.90;;;;;;7366710;19;20593;-64
2023/04/13 05:34:05;;;;;;;9.18;6.10;;;5.80;99.90;;;;;;7363195;19;20025;-63
2023/04/13 05:36:32;;;;;;;9.10;5.80;;;5.90;99.90;;;;;;7369247;19;20018;-64
2023/04/13 05:39:03;;;;;;;11.80;7.17;;;5.90;99.90;;;;;;7366460;19;20053;-64
2023/04/13 05:41:32;;;;;;;8.60;5.63;;;6.00;99.90;;;;;;7371255;19;20805;-63
2023/04/13 05:43:59;;;;;;;9.70;6.25;;;6.00;99.90;;;;;;7367417;19;20018;-63
2023/04/13 05:46:26;;;;;;;9.90;6.28;;;6.00;99.90;;;;;;7369612;19;20023;-64
2023/04/13 05:48:53;;;;;;;10.90;5.03;;;6.00;99.90;;;;;;7369101;19;20022;-64
2023/04/13 05:51:20;;;;;;;7.53;5.35;;;6.20;99.90;;;;;;7369020;19;20081;-64
2023/04/13 05:53:46;;;;;;;11.50;5.32;;;6.30;99.90;;;;;;7373126;19;20627;-64
2023/04/13 05:56:13;;;;;;;8.48;5.25;;;6.40;99.90;;;;;;7370281;19;20014;-64
2023/04/13 05:58:39;;;;;;;10.70;5.28;;;6.40;99.90;;;;;;7370688;19;20086;-64
2023/04/13 06:01:33;;;;;;;9.48;5.18;;;6.40;99.90;;;;;;7368246;19;20014;-64
2023/04/13 06:04:01;;;;;;;11.48;5.60;;;6.40;99.90;;;;;;7371830;19;20043;-65
2023/04/13 06:06:32;;;;;;;11.10;5.47;;;6.40;99.90;;;;;;7372125;19;20502;-64
2023/04/13 06:08:58;;;;;;;12.20;6.53;;;6.40;99.90;;;;;;7371134;19;20597;-65
2023/04/13 06:11:25;;;;;;;11.30;6.95;;;6.50;99.90;;;;;;7365439;19;20054;-65
2023/04/13 06:13:52;;;;;;;12.90;7.68;;;6.60;99.90;;;;;;7366940;19;20200;-64
2023/04/13 06:16:20;;;;;;;12.13;7.00;;;6.60;99.90;;;;;;7366501;19;20023;-65
2023/04/13 06:18:47;;;;;;;11.02;7.13;;;6.60;99.90;;;;;;7363032;19;20736;-62
2023/04/13 06:21:13;;;;;;;9.57;6.78;;;6.50;99.90;;;;;;7367947;19;20914;-63
2023/04/13 06:23:39;;;;;;;14.05;7.68;;;6.50;99.90;;;;;;7367194;19;20060;-63
2023/04/13 06:26:16;;;;;;;13.60;8.57;;;6.60;99.90;;;;;;7362302;19;20027;-63
2023/04/13 06:28:52;;;;;;;11.63;7.53;;;6.60;99.90;;;;;;7364711;19;20025;-64
2023/04/13 06:31:20;;;;;;;13.68;6.70;;;6.70;99.90;;;;;;7362491;19;20018;-64
2023/04/13 06:33:49;;;;;;;10.95;7.95;;;6.70;99.90;;;;;;7369542;19;20018;-64
2023/04/13 06:36:17;;;;;;;12.18;7.63;;;6.80;99.90;;;;;;7366473;19;20065;-63
2023/04/13 06:38:44;;;;;;;10.15;6.55;;;7.00;99.90;;;;;;7367198;19;20055;-63
2023/04/13 06:41:12;;;;;;;9.88;6.60;;;7.10;99.90;;;;;;7368992;19;20026;-63
2023/04/13 06:43:42;;;;;;;15.70;6.78;;;7.30;99.90;;;;;;7367930;19;20025;-63
2023/04/13 06:46:29;;;;;;;10.75;6.57;;;7.50;99.90;;;;;;7371679;19;20030;-64
2023/04/13 06:49:01;;;;;;;11.70;5.63;;;7.60;99.90;;;;;;7363925;19;20019;-63
2023/04/13 06:51:30;;;;;;;7.80;5.03;;;7.70;99.90;;;;;;7365836;19;20370;-64
2023/04/13 06:53:59;;;;;;;10.05;5.35;;;7.60;99.90;;;;;;7368055;19;20026;-64
2023/04/13 06:56:26;;;;;;;9.30;6.00;;;7.80;99.90;;;;;;7371550;19;20677;-64
2023/04/13 06:58:56;;;;;;;8.25;5.00;;;7.90;99.90;;;;;;7367414;19;20371;-64
2023/04/13 07:01:22;;;;;;;12.25;5.05;;;7.80;99.90;;;;;;7369451;19;20035;-64
2023/04/13 07:03:48;;;;;;;9.88;5.35;;;7.80;99.90;;;;;;7368770;19;20025;-63
2023/04/13 07:06:15;;;;;;;11.73;5.78;;;7.80;99.90;;;;;;7368155;19;20018;-64
2023/04/13 07:08:42;;;;;;;8.20;4.72;;;7.80;99.90;;;;;;7367542;19;20513;-67
2023/04/13 07:11:09;;;;;;;15.82;5.70;;;7.80;99.90;;;;;;7367452;19;20029;-63
2023/04/13 07:13:37;;;;;;;11.65;5.25;;;7.80;99.90;;;;;;7369943;19;20038;-63
2023/04/13 07:16:11;;;;;;;11.05;5.53;;;7.80;99.90;;;;;;7368348;19;20029;-64
2023/04/13 07:18:39;;;;;;;12.50;5.55;;;7.80;99.90;;;;;;7367589;19;20486;-64
2023/04/13 07:21:06;;;;;;;9.45;4.97;;;7.80;99.90;;;;;;7368142;19;20600;-65
2023/04/13 07:23:44;;;;;;;8.20;5.05;;;8.00;99.90;;;;;;7373808;19;20117;-65
2023/04/13 07:26:14;;;;;;;11.75;4.65;;;8.00;99.90;;;;;;7372701;19;20786;-65
2023/04/13 07:28:41;;;;;;;13.45;5.70;;;8.10;99.90;;;;;;7374932;19;20878;-65
2023/04/13 07:31:08;;;;;;;8.45;4.07;;;8.40;99.90;;;;;;7376464;19;20363;-65
2023/04/13 07:33:37;;;;;;;9.35;4.55;;;8.60;99.90;;;;;;7374968;19;20026;-65
2023/04/13 07:36:04;;;;;;;6.65;3.90;;;9.00;99.90;;;;;;7377300;19;20014;-62
2023/04/13 07:38:32;;;;;;;5.90;3.95;;;9.10;99.90;;;;;;7372073;19;20019;-64
2023/04/13 07:40:58;;;;;;;10.98;4.63;;;9.30;99.90;;;;;;7374004;19;20374;-65
2023/04/13 07:43:28;;;;;;;10.00;4.20;;;8.90;99.90;;;;;;7374337;19;20485;-65
2023/04/13 07:45:57;;;;;;;9.18;3.90;;;8.60;99.90;;;;;;7375176;19;20493;-66
2023/04/13 07:48:24;;;;;;;10.88;4.47;;;8.30;99.90;;;;;;7373357;19;20034;-66
2023/04/13 07:50:51;;;;;;;9.38;4.53;;;8.10;99.90;;;;;;7374942;19;20655;-66
2023/04/13 07:53:21;;;;;;;11.75;4.40;;;8.00;99.90;;;;;;7372560;19;20006;-66
2023/04/13 07:55:48;;;;;;;8.85;4.68;;;8.00;99.90;;;;;;7377554;19;20026;-65
2023/04/13 07:58:14;;;;;;;8.57;3.60;;;7.90;99.90;;;;;;7376777;19;20066;-65
2023/04/13 08:00:41;;;;;;;5.93;2.95;;;7.80;99.90;;;;;;7372264;19;21744;-65
2023/04/13 08:03:07;;;;;;;9.15;3.50;;;7.90;99.90;;;;;;7376167;19;20014;-65
2023/04/13 08:05:35;;;;;;;8.02;3.33;;;8.10;99.90;;;;;;7375917;19;20018;-65
2023/04/13 08:08:02;;;;;;;8.15;3.70;;;8.30;99.90;;;;;;7375737;19;20513;-66
2023/04/13 08:10:29;;;;;;;6.18;2.80;;;8.60;99.90;;;;;;7374170;19;20489;-66
2023/04/13 08:12:59;;;;;;;7.45;2.90;;;8.70;99.90;;;;;;7376062;19;20470;-66
2023/04/13 08:15:26;;;;;;;7.38;3.20;;;8.70;99.90;;;;;;7373789;19;20014;-65
2023/04/13 08:17:53;;;;;;;6.22;2.70;;;8.60;99.90;;;;;;7371512;19;20048;-65
2023/04/13 08:20:20;;;;;;;4.72;2.78;;;8.60;99.90;;;;;;7366267;19;20692;-66
2023/04/13 08:22:47;;;;;;;6.50;3.05;;;8.60;99.90;;;;;;7370481;19;20843;-65
2023/04/13 08:25:14;;;;;;;5.45;2.75;;;8.60;99.90;;;;;;7370721;19;20073;-65
2023/04/13 08:27:41;;;;;;;5.63;2.63;;;8.60;99.90;;;;;;7371361;19;20029;-65
2023/04/13 08:30:08;;;;;;;4.95;2.17;;;8.80;99.90;;;;;;7372778;19;20024;-65
2023/04/13 08:32:52;;;;;;;4.10;2.35;;;8.90;99.90;;;;;;7361497;19;20018;-65
2023/04/13 08:35:19;;;;;;;9.70;3.10;;;9.00;99.90;;;;;;7372364;19;20030;-66
2023/04/13 08:37:45;;;;;;;4.18;2.33;;;8.90;99.90;;;;;;7371719;19;20030;-66
2023/04/13 08:40:12;;;;;;;8.20;2.60;;;8.70;99.90;;;;;;7372676;19;20025;-66
2023/04/13 08:42:40;;;;;;;7.53;2.58;;;8.40;99.90;;;;;;7375082;19;20025;-66
2023/04/13 08:45:08;;;;;;;3.08;1.55;;;8.00;99.90;;;;;;7373237;19;20029;-67
2023/04/13 08:47:39;;;;;;;;;;;7.50;99.90;;;;;;7374040;19;20022;-63
2023/04/13 08:50:07;;;;;;;4.57;2.72;;;7.30;99.90;;;;;;7368020;19;19919;-63
2023/04/13 08:52:42;;;;;;;7.00;3.28;;;7.20;99.90;;;;;;7371103;19;20050;-64
2023/04/13 08:55:09;;;;;;;11.23;4.13;;;7.10;99.90;;;;;;7365455;19;20804;-64
2023/04/13 08:57:38;;;;;;;7.72;3.97;;;7.20;99.90;;;;;;7373189;19;20023;-63
2023/04/13 09:00:15;;;;;;;7.82;4.43;;;7.20;99.90;;;;;;7371979;19;20034;-64
2023/04/13 09:02:53;;;;;;;12.52;5.55;;;7.20;99.90;;;;;;7371803;19;20025;-64
2023/04/13 09:05:21;;;;;;;11.93;5.50;;;7.40;99.90;;;;;;7372041;19;20074;-64
2023/04/13 09:07:56;;;;;;;8.63;5.45;;;7.40;99.90;;;;;;7372027;19;20031;-64
2023/04/13 09:10:25;;;;;;;9.75;5.80;;;7.50;99.90;;;;;;7367923;19;20025;-65
2023/04/13 09:12:51;;;;;;;7.47;5.63;;;7.60;99.90;;;;;;7371236;19;20498;-65
2023/04/13 09:15:18;;;;;;;8.07;5.55;;;7.70;99.90;;;;;;7371687;19;20043;-64
2023/04/13 09:18:14;;;;;;;8.75;4.32;;;7.90;99.90;;;;;;7375028;19;20415;-66
2023/04/13 09:20:57;;;;;;;8.05;3.92;;;8.40;99.90;;;;;;7370071;19;20498;-66
2023/04/13 09:23:24;;;;;;;4.82;2.20;;;9.30;99.90;;;;;;7369698;19;20042;-66
2023/04/13 09:26:03;;;;;;;7.22;2.47;;;9.00;99.90;;;;;;7370601;19;20111;-65
2023/04/13 09:28:30;;;;;;;8.00;3.10;;;8.80;99.90;;;;;;7373506;19;20023;-65
2023/04/13 09:31:05;;;;;;;7.25;2.58;;;8.60;99.90;;;;;;7369270;19;20014;-65
2023/04/13 09:33:43;;;;;;;3.45;1.40;;;8.60;99.90;;;;;;7369762;19;20017;-65
2023/04/13 09:36:14;;;;;;;4.65;1.67;;;8.60;99.90;;;;;;7372392;19;20022;-65
2023/04/13 09:38:52;;;;;;;7.43;1.50;;;8.50;99.90;;;;;;7373020;19;20014;-65
2023/04/13 09:41:49;;;;;;;5.53;1.52;;;8.40;99.90;;;;;;7375230;19;20784;-66
2023/04/13 09:44:19;;;;;;;3.55;1.33;;;8.00;99.90;;;;;;7371126;19;20018;-66
2023/04/13 09:47:03;;;;;;;5.85;1.27;;;7.80;99.90;;;;;;7371376;19;20749;-64
2023/04/13 09:49:41;;;;;;;1.88;0.73;;;7.80;99.90;;;;;;7368044;19;20026;-65
2023/04/13 09:52:22;;;;;;;3.88;1.55;;;7.90;99.90;;;;;;7370790;19;20047;-65
2023/04/13 09:54:50;;;;;;;3.58;0.93;;;8.30;99.90;;;;;;7371916;19;20065;-65
2023/04/13 09:57:30;;;;;;;3.47;0.88;;;8.90;99.90;;;;;;7369915;19;20019;-66
2023/04/13 09:59:59;;;;;;;3.78;1.30;;;9.60;99.90;;;;;;7366173;19;20604;-66
2023/04/13 10:02:26;;;;;;;6.18;1.55;;;10.20;99.90;;;;;;7372683;19;20021;-67
2023/04/13 10:04:53;;;;;;;5.07;1.92;;;10.60;99.90;;;;;;7372154;19;20019;-66
2023/04/13 10:07:25;;;;;;;6.72;2.22;;;10.80;99.90;;;;;;7374104;19;20502;-66
2023/04/13 10:09:55;;;;;;;3.92;1.20;;;11.00;99.90;;;;;;7372704;19;20094;-65
2023/04/13 10:12:22;;;;;;;4.50;1.35;;;10.80;99.90;;;;;;7372286;19;20054;-65
2023/04/13 10:14:55;;;;;;;6.40;1.70;;;10.90;99.90;;;;;;7371579;19;20014;-65
2023/04/13 10:17:30;;;;;;;6.40;1.65;;;11.00;99.90;;;;;;7369744;19;21101;-65
2023/04/13 10:20:06;;;;;;;7.38;1.85;;;11.10;99.90;;;;;;7374953;19;20023;-65
2023/04/13 10:22:33;;;;;;;7.65;1.80;;;10.80;99.90;;;;;;7370593;19;20014;-65
2023/04/13 10:25:00;;;;;;;7.00;1.95;;;10.60;99.90;;;;;;7364566;19;20053;-64
2023/04/13 10:27:27;;;;;;;5.05;1.70;;;10.20;99.90;;;;;;7363163;19;20071;-64
2023/04/13 10:29:53;;;;;;;6.32;1.38;;;10.00;99.90;;;;;;7367168;19;20018;-64
2023/04/13 10:32:26;;;;;;;5.90;1.50;;;9.70;99.90;;;;;;7369315;19;20014;-67
2023/04/13 10:34:54;;;;;;;4.97;1.02;;;9.80;99.90;;;;;;7371177;19;20015;-65
2023/04/13 10:37:27;;;;;;;7.57;1.52;;;10.00;99.90;;;;;;7365002;19;20015;-65
2023/04/13 10:40:13;;;;;;;8.77;1.95;;;10.30;99.90;;;;;;7369711;19;20030;-67
2023/04/13 10:42:41;;;;;;;7.90;2.00;;;10.60;99.90;;;;;;7367730;19;20050;-65
2023/04/13 10:45:23;;;;;;;13.57;3.90;;;11.20;99.90;;;;;;7371184;19;20038;-64
2023/04/13 10:47:49;;;;;;;9.88;2.22;;;11.60;99.90;;;;;;7368673;19;20022;-65
2023/04/13 10:50:21;;;;;;;9.68;2.63;;;11.30;99.90;;;;;;7365939;19;20019;-65
2023/04/13 10:53:03;;;;;;;8.55;2.00;;;10.90;99.90;;;;;;7370453;19;20084;-65
2023/04/13 10:55:31;;;;;;;6.88;2.10;;;11.20;99.90;;;;;;7367963;19;20025;-65
2023/04/13 10:57:59;;;;;;;8.02;2.30;;;11.40;99.90;;;;;;7374530;19;20029;-65
2023/04/13 11:00:28;;;;;;;12.45;2.97;;;11.30;99.90;;;;;;7371156;19;20150;-65
2023/04/13 11:02:58;;;;;;;10.00;2.60;;;11.40;99.90;;;;;;7372129;19;20376;-63
2023/04/13 11:05:26;;;;;;;8.50;2.10;;;11.30;99.90;;;;;;7374398;19;20360;-63
2023/04/13 11:07:52;;;;;;;10.15;2.33;;;11.00;99.90;;;;;;7378055;19;20021;-65
2023/04/13 11:10:26;;;;;;;11.38;2.53;;;10.80;99.90;;;;;;7376097;19;20041;-64
2023/04/13 11:12:54;;;;;;;11.38;2.53;;;10.90;99.90;;;;;;7372655;19;21223;-64
2023/04/13 11:15:22;;;;;;;8.10;2.33;;;10.60;99.90;;;;;;7379891;19;20014;-66
2023/04/13 11:17:56;;;;;;;10.48;2.45;;;10.80;99.90;;;;;;7376246;19;20014;-65
2023/04/13 11:20:36;;;;;;;5.85;2.13;;;11.00;99.90;;;;;;7372744;19;20038;-66
2023/04/13 11:23:22;;;;;;;7.22;2.28;;;10.90;99.90;;;;;;7376625;19;20011;-66
2023/04/13 11:25:59;;;;;;;9.55;1.90;;;10.90;99.90;;;;;;7378365;19;20029;-66
2023/04/13 11:28:40;;;;;;;11.15;2.00;;;10.90;99.90;;;;;;7371445;19;20030;-64
2023/04/13 11:31:07;;;;;;;7.68;1.65;;;11.00;99.90;;;;;;7371104;19;20875;-64
2023/04/13 11:33:34;;;;;;;8.93;2.00;;;10.90;99.90;;;;;;7372323;19;20368;-64
2023/04/13 11:36:02;;;;;;;10.30;2.00;;;10.70;99.90;;;;;;7377391;19;20030;-65
2023/04/13 11:38:29;;;;;;;12.40;2.50;;;10.90;99.90;;;;;;7378052;19;20014;-65
2023/04/13 11:41:05;;;;;;;9.13;2.30;;;10.90;99.90;;;;;;7375952;19;20489;-65
2023/04/13 11:43:32;;;;;;;10.77;2.40;;;10.60;99.90;;;;;;7376214;19;20558;-65
2023/04/13 11:45:59;;;;;;;10.27;2.28;;;10.60;99.90;;;;;;7374548;19;20101;-65
2023/04/13 11:48:26;;;;;;;7.80;2.10;;;10.60;99.90;;;;;;7375109;19;20014;-65
2023/04/13 11:50:54;;;;;;;8.07;2.75;;;10.60;99.90;;;;;;7375108;19;20049;-66
2023/04/13 11:53:21;;;;;;;12.50;2.55;;;10.50;99.90;;;;;;7374158;19;20019;-64
2023/04/13 11:55:47;;;;;;;7.78;2.55;;;10.60;99.90;;;;;;7375828;19;20094;-63
2023/04/13 11:58:17;;;;;;;12.77;2.83;;;10.70;99.90;;;;;;7370378;19;20708;-62
2023/04/13 12:00:44;;;;;;;13.05;2.63;;;10.90;99.90;;;;;;7371986;19;20029;-63
2023/04/13 12:03:14;;;;;;;13.77;3.25;;;11.00;99.90;;;;;;7366955;19;20054;-64
2023/04/13 12:05:42;;;;;;;11.60;2.92;;;11.00;99.90;;;;;;7366534;19;20629;-64
2023/04/13 12:08:19;;;;;;;10.80;2.83;;;11.10;99.90;;;;;;7374616;19;20516;-63
2023/04/13 12:10:53;;;;;;;10.52;2.05;;;10.90;99.90;;;;;;7371470;19;20029;-63
2023/04/13 12:13:20;;;;;;;12.30;3.08;;;11.00;99.90;;;;;;7372648;19;20014;-64
2023/04/13 12:15:47;;;;;;;11.82;2.22;;;11.10;99.90;;;;;;7373142;19;20023;-64
2023/04/13 12:18:14;;;;;;;12.07;2.70;;;11.40;99.90;;;;;;7375533;19;20783;-65
2023/04/13 12:20:43;;;;;;;11.40;2.10;;;11.90;99.90;;;;;;7370884;19;20629;-65
2023/04/13 12:23:22;;;;;;;9.20;2.10;;;12.20;99.90;;;;;;7370560;19;20050;-64
2023/04/13 12:26:07;;;;;;;7.63;2.67;;;12.20;99.90;;;;;;7370612;19;20018;-64
2023/04/13 12:28:37;;;;;;;11.57;2.10;;;12.00;99.90;;;;;;7374748;19;20033;-66
2023/04/13 12:31:11;;;;;;;9.80;2.40;;;12.20;99.90;;;;;;7372048;19;20022;-65
2023/04/13 12:33:38;;;;;;;10.32;2.33;;;11.80;99.90;;;;;;7373989;19;20077;-65
2023/04/13 12:36:10;;;;;;;11.80;2.83;;;11.50;99.90;;;;;;7367372;19;20014;-65
2023/04/13 12:38:37;;;;;;;9.75;1.95;;;11.30;99.90;;;;;;7377164;19;20108;-65
2023/04/13 12:41:08;;;;;;;6.43;1.98;;;11.20;99.90;;;;;;7368471;19;20855;-64
2023/04/13 12:43:35;;;;;;;;;;;11.30;99.90;;;;;;7372780;19;20023;-65
2023/04/13 12:46:01;;;;;;;8.95;2.17;;;11.50;99.90;;;;;;7373287;19;19918;-65
2023/04/13 12:48:29;;;;;;;9.15;2.63;;;11.30;99.90;;;;;;7377718;19;20018;-65
2023/04/13 12:50:55;;;;;;;12.48;2.35;;;11.40;99.90;;;;;;7374414;19;20025;-63
2023/04/13 12:53:21;;;;;;;7.90;2.17;;;11.50;99.90;;;;;;7370708;19;20505;-64
2023/04/13 12:55:47;;;;;;;10.98;3.05;;;11.60;99.90;;;;;;7371714;19;20046;-65
2023/04/13 12:58:14;;;;;;;10.93;2.15;;;11.70;99.90;;;;;;7371134;19;20018;-65
2023/04/13 13:00:40;;;;;;;9.90;2.05;;;12.20;99.90;;;;;;7371542;19;20098;-65
2023/04/13 13:03:06;;;;;;;15.50;2.65;;;12.50;99.90;;;;;;7371193;19;20508;-65
2023/04/13 13:05:33;;;;;;;10.45;2.10;;;12.60;99.90;;;;;;7370497;19;20018;-65
2023/04/13 13:07:59;;;;;;;9.95;1.95;;;12.80;99.90;;;;;;7365451;19;20105;-65
2023/04/13 13:10:25;;;;;;;6.60;1.77;;;13.10;99.90;;;;;;7375977;19;20022;-65